createdAt,value
2023-02-13T00:00:10.983Z,4.70
2023-02-13T00:02:37.572Z,4.13
2023-02-13T00:05:04.069Z,5.03
2023-02-13T00:07:30.529Z,4.17
2023-02-13T00:09:57.058Z,3.53
2023-02-13T00:12:23.526Z,4.37
2023-02-13T00:14:50.017Z,6.03
2023-02-13T00:17:16.480Z,4.07
2023-02-13T00:19:42.936Z,5.07
2023-02-13T00:22:09.965Z,4.50
2023-02-13T00:24:36.632Z,6.27
2023-02-13T00:27:03.453Z,4.47
2023-02-13T00:29:29.973Z,3.43
2023-02-13T00:31:56.636Z,4.83
2023-02-13T00:34:23.234Z,4.27
2023-02-13T00:36:49.684Z,4.57
2023-02-13T00:39:16.132Z,4.43
2023-02-13T00:41:42.625Z,3.77
2023-02-13T00:44:09.714Z,4.60
2023-02-13T00:46:36.716Z,4.80
2023-02-13T00:49:03.292Z,7.07
2023-02-13T00:51:29.798Z,5.03
2023-02-13T00:53:56.401Z,2.87
2023-02-13T00:56:23.124Z,3.33
2023-02-13T00:58:49.625Z,3.03
2023-02-13T01:01:16.217Z,3.00
2023-02-13T01:03:42.806Z,4.27
2023-02-13T01:13:42.877Z,3.57
2023-02-13T01:16:09.454Z,3.50
2023-02-13T01:18:35.985Z,2.90
2023-02-13T01:21:04.312Z,5.23
2023-02-13T01:23:34.814Z,3.13
2023-02-13T01:26:03.192Z,3.30
2023-02-13T01:28:29.745Z,3.90
2023-02-13T01:30:57.381Z,2.77
2023-02-13T01:33:25.037Z,3.77
2023-02-13T01:35:51.880Z,3.43
2023-02-13T01:38:18.349Z,5.17
2023-02-13T01:40:48.637Z,3.97
2023-02-13T01:43:15.506Z,4.40
2023-02-13T01:45:42.692Z,3.33
2023-02-13T01:48:14.890Z,3.93
2023-02-13T01:50:43.750Z,3.57
2023-02-13T01:53:18.037Z,2.40
2023-02-13T01:55:50.580Z,3.33
2023-02-13T01:58:18.813Z,3.17
2023-02-13T02:01:07.384Z,3.90
2023-02-13T02:03:37.457Z,5.80
2023-02-13T02:06:04.947Z,6.10
2023-02-13T02:08:31.685Z,7.27
2023-02-13T02:11:00.217Z,6.23
2023-02-13T02:13:26.897Z,5.97
2023-02-13T02:15:53.495Z,5.07
2023-02-13T02:18:23.370Z,5.80
2023-02-13T02:20:52.972Z,4.10
2023-02-13T02:23:33.899Z,5.67
2023-02-13T02:26:13.509Z,3.33
2023-02-13T02:28:40.033Z,4.80
2023-02-13T02:31:45.216Z,3.40
2023-02-13T02:34:23.914Z,3.43
2023-02-13T02:37:11.421Z,3.17
2023-02-13T02:40:06.852Z,4.03
2023-02-13T02:42:39.419Z,3.00
2023-02-13T02:45:11.772Z,4.80
2023-02-13T02:48:02.902Z,3.10
2023-02-13T02:50:51.954Z,2.57
2023-02-13T02:53:27.224Z,2.97
2023-02-13T02:56:01.588Z,3.63
2023-02-13T02:58:52.000Z,3.17
2023-02-13T03:01:39.442Z,5.40
2023-02-13T03:04:24.631Z,3.00
2023-02-13T03:06:59.670Z,3.50
2023-02-13T03:09:50.491Z,3.97
2023-02-13T03:12:41.093Z,3.77
2023-02-13T03:15:07.814Z,3.20
2023-02-13T03:17:53.388Z,2.83
2023-02-13T03:20:58.366Z,7.03
2023-02-13T03:23:30.851Z,3.90
2023-02-13T03:25:57.281Z,3.67
2023-02-13T03:29:02.648Z,2.00
2023-02-13T03:31:29.266Z,4.43
2023-02-13T03:33:58.530Z,4.20
2023-02-13T03:36:43.529Z,2.20
2023-02-13T03:39:19.213Z,3.10
2023-02-13T03:42:02.851Z,2.60
2023-02-13T03:45:15.562Z,3.73
2023-02-13T03:47:44.207Z,2.33
2023-02-13T03:50:12.477Z,2.07
2023-02-13T03:53:00.138Z,3.73
2023-02-13T03:55:48.534Z,4.50
2023-02-13T03:58:36.420Z,2.83
2023-02-13T04:01:05.204Z,3.07
2023-02-13T04:03:37.598Z,2.93
2023-02-13T04:06:11.064Z,4.97
2023-02-13T04:08:37.846Z,2.67
2023-02-13T04:11:10.243Z,4.73
2023-02-13T04:13:42.196Z,4.03
2023-02-13T04:16:11.581Z,3.30
2023-02-13T04:18:38.669Z,3.33
2023-02-13T04:21:06.929Z,4.07
2023-02-13T04:23:34.398Z,3.80
2023-02-13T04:26:03.628Z,4.10
2023-02-13T04:28:30.304Z,2.63
2023-02-13T04:30:57.732Z,5.57
2023-02-13T04:33:24.669Z,4.57
2023-02-13T04:35:51.369Z,6.10
2023-02-13T04:38:17.831Z,3.30
2023-02-13T04:40:44.315Z,6.23
2023-02-13T04:43:10.855Z,4.40
2023-02-13T04:45:37.427Z,4.43
2023-02-13T04:48:04.062Z,3.00
2023-02-13T04:50:30.559Z,3.90
2023-02-13T04:52:57.921Z,4.37
2023-02-13T04:55:25.390Z,3.50
2023-02-13T04:57:52.403Z,4.13
2023-02-13T05:00:19.309Z,3.40
2023-02-13T05:02:45.726Z,2.27
2023-02-13T05:05:12.235Z,3.77
2023-02-13T05:07:38.663Z,4.97
2023-02-13T05:10:05.327Z,3.73
2023-02-13T05:12:31.795Z,3.70
2023-02-13T05:14:58.409Z,3.27
2023-02-13T05:17:27.326Z,3.80
2023-02-13T05:19:54.864Z,3.13
2023-02-13T05:22:40.053Z,4.10
2023-02-13T05:25:06.713Z,3.83
2023-02-13T05:27:33.224Z,4.03
2023-02-13T05:29:59.826Z,3.07
2023-02-13T05:32:26.440Z,3.53
2023-02-13T05:34:53.000Z,4.10
2023-02-13T05:37:19.478Z,4.10
2023-02-13T05:39:46.057Z,3.03
2023-02-13T05:42:12.559Z,3.83
2023-02-13T05:48:06.637Z,4.17
2023-02-13T05:50:33.178Z,3.90
2023-02-13T05:52:59.633Z,4.33
2023-02-13T05:55:26.050Z,2.97
2023-02-13T05:57:55.812Z,3.37
2023-02-13T06:00:22.382Z,5.87
2023-02-13T06:02:48.900Z,3.90
2023-02-13T06:05:15.471Z,3.53
2023-02-13T06:07:41.938Z,4.83
2023-02-13T06:10:08.535Z,2.90
2023-02-13T06:12:35.145Z,4.90
2023-02-13T06:15:03.639Z,3.70
2023-02-13T06:17:30.150Z,1.97
2023-02-13T06:19:56.710Z,3.13
2023-02-13T06:22:23.220Z,5.03
2023-02-13T06:24:49.756Z,5.20
2023-02-13T06:27:16.294Z,3.43
2023-02-13T06:29:42.885Z,3.83
2023-02-13T06:32:09.587Z,2.90
2023-02-13T06:34:38.382Z,3.57
2023-02-13T06:37:04.902Z,4.67
2023-02-13T06:39:31.434Z,4.13
2023-02-13T06:41:58.032Z,3.33
2023-02-13T06:44:24.547Z,3.00
2023-02-13T06:46:52.304Z,3.73
2023-02-13T06:49:18.935Z,4.93
2023-02-13T06:51:45.480Z,3.87
2023-02-13T06:54:11.985Z,4.63
2023-02-13T06:56:38.520Z,3.77
2023-02-13T06:59:05.054Z,4.30
2023-02-13T07:01:33.035Z,4.40
2023-02-13T07:03:59.692Z,4.07
2023-02-13T07:06:26.470Z,3.00
2023-02-13T07:08:55.741Z,4.00
2023-02-13T07:11:23.599Z,5.87
2023-02-13T07:13:50.263Z,3.67
2023-02-13T07:16:16.904Z,3.77
2023-02-13T07:18:43.793Z,2.73
2023-02-13T07:21:10.345Z,4.97
2023-02-13T07:23:36.968Z,4.20
2023-02-13T07:26:03.709Z,6.63
2023-02-13T07:28:30.414Z,3.27
2023-02-13T07:30:57.443Z,4.50
2023-02-13T07:33:29.919Z,3.43
2023-02-13T07:35:56.411Z,4.93
2023-02-13T07:38:22.934Z,6.40
2023-02-13T07:40:49.504Z,5.47
2023-02-13T07:43:16.013Z,6.67
2023-02-13T07:45:45.102Z,9.93
2023-02-13T07:48:14.678Z,8.10
2023-02-13T07:50:41.354Z,5.70
2023-02-13T07:53:08.032Z,6.17
2023-02-13T07:55:34.669Z,5.27
2023-02-13T07:58:01.906Z,4.63
2023-02-13T08:00:31.249Z,7.07
2023-02-13T08:03:01.554Z,4.17
2023-02-13T08:05:29.016Z,4.87
2023-02-13T08:07:55.563Z,6.47
2023-02-13T08:10:40.933Z,5.87
2023-02-13T08:13:07.925Z,5.83
2023-02-13T08:15:34.898Z,7.97
2023-02-13T08:18:01.521Z,7.23
2023-02-13T08:20:28.692Z,6.07
2023-02-13T08:23:02.194Z,7.30
2023-02-13T08:25:38.569Z,8.43
2023-02-13T08:28:05.551Z,6.87
2023-02-13T08:30:32.271Z,9.27
2023-02-13T08:32:58.857Z,7.47
2023-02-13T08:35:27.268Z,8.40
2023-02-13T08:37:53.918Z,6.17
2023-02-13T08:40:20.582Z,8.47
2023-02-13T08:42:47.152Z,10.43
2023-02-13T08:45:13.806Z,5.50
2023-02-13T08:47:40.714Z,5.90
2023-02-13T08:50:09.735Z,7.43
2023-02-13T08:52:36.338Z,6.87
2023-02-13T08:55:03.670Z,7.33
2023-02-13T08:57:31.415Z,6.10
2023-02-13T08:59:58.076Z,7.87
2023-02-13T09:02:24.632Z,5.53
2023-02-13T09:04:51.245Z,6.50
2023-02-13T09:07:17.764Z,5.30
2023-02-13T09:09:44.310Z,5.63
2023-02-13T09:12:10.906Z,4.67
2023-02-13T09:14:41.660Z,7.43
2023-02-13T09:17:08.348Z,7.83
2023-02-13T09:19:35.055Z,5.73
2023-02-13T09:22:01.615Z,5.13
2023-02-13T09:24:28.193Z,5.10
2023-02-13T09:26:54.954Z,7.07
2023-02-13T09:29:21.571Z,4.40
2023-02-13T09:31:48.414Z,7.20
2023-02-13T09:34:15.135Z,6.67
2023-02-13T09:36:41.648Z,8.83
2023-02-13T09:39:09.203Z,6.20
2023-02-13T09:41:39.598Z,5.20
2023-02-13T09:44:33.943Z,8.47
2023-02-13T09:47:21.035Z,5.47
2023-02-13T09:49:50.859Z,9.17
2023-02-13T09:52:19.734Z,4.80
2023-02-13T09:54:46.326Z,4.70
2023-02-13T09:57:53.663Z,5.10
2023-02-13T10:00:24.153Z,3.93
2023-02-13T10:02:53.849Z,4.53
2023-02-13T10:05:20.434Z,5.07
2023-02-13T10:08:11.267Z,5.03
2023-02-13T10:10:56.674Z,2.50
2023-02-13T10:13:42.161Z,5.67
2023-02-13T10:16:18.299Z,4.83
2023-02-13T10:18:51.004Z,7.37
2023-02-13T10:21:20.448Z,6.27
2023-02-13T10:23:58.619Z,6.37
2023-02-13T10:26:42.910Z,2.57
2023-02-13T10:29:41.354Z,5.93
2023-02-13T10:32:14.015Z,6.03
2023-02-13T10:34:45.086Z,4.27
2023-02-13T10:37:17.056Z,5.10
2023-02-13T10:39:45.104Z,4.67
2023-02-13T10:42:22.928Z,4.70
2023-02-13T10:44:56.055Z,4.93
2023-02-13T10:47:45.171Z,5.40
2023-02-13T10:50:29.330Z,4.73
2023-02-13T10:53:18.887Z,5.37
2023-02-13T10:55:52.391Z,5.83
2023-02-13T10:58:18.943Z,3.90
2023-02-13T11:00:48.174Z,2.67
2023-02-13T11:03:19.725Z,4.73
2023-02-13T11:05:46.464Z,5.23
2023-02-13T11:08:16.699Z,7.23
2023-02-13T11:10:43.278Z,4.73
2023-02-13T11:13:36.218Z,4.87
2023-02-13T11:16:04.852Z,5.37
2023-02-13T11:18:34.315Z,5.23
2023-02-13T11:21:21.173Z,4.67
2023-02-13T11:23:51.764Z,4.33
2023-02-13T11:26:27.406Z,3.73
2023-02-13T11:28:55.318Z,6.53
2023-02-13T11:31:32.400Z,3.80
2023-02-13T11:34:00.333Z,4.20
2023-02-13T11:36:28.517Z,7.70
2023-02-13T11:39:18.396Z,5.17
2023-02-13T11:41:46.189Z,6.87
2023-02-13T11:44:31.470Z,3.10
2023-02-13T11:46:59.505Z,5.53
2023-02-13T11:49:27.873Z,4.23
2023-02-13T11:51:54.519Z,5.67
2023-02-13T11:54:32.505Z,2.87
2023-02-13T12:00:45.770Z,4.63
2023-02-13T12:03:26.292Z,4.43
2023-02-13T12:06:10.738Z,3.63
2023-02-13T12:08:38.396Z,7.03
2023-02-13T12:11:14.248Z,5.30
2023-02-13T12:13:41.216Z,7.43
2023-02-13T12:16:25.403Z,3.33
2023-02-13T12:18:54.027Z,5.93
2023-02-13T12:21:23.228Z,3.57
2023-02-13T12:23:55.835Z,5.20
2023-02-13T12:26:22.422Z,3.77
2023-02-13T12:29:00.989Z,4.37
2023-02-13T12:31:30.209Z,4.13
2023-02-13T12:34:15.824Z,4.70
2023-02-13T12:36:45.101Z,3.00
2023-02-13T12:39:11.580Z,3.50
2023-02-13T12:41:56.950Z,5.10
2023-02-13T12:44:48.996Z,3.83
2023-02-13T12:47:17.477Z,4.03
2023-02-13T12:50:02.852Z,5.53
2023-02-13T12:52:29.503Z,3.83
2023-02-13T12:54:59.001Z,5.13
2023-02-13T12:57:40.171Z,3.97
2023-02-13T13:00:15.631Z,2.33
2023-02-13T13:02:47.963Z,4.20
2023-02-13T13:05:33.126Z,5.63
2023-02-13T13:08:09.692Z,9.13
2023-02-13T13:10:55.189Z,2.03
2023-02-13T13:13:40.329Z,3.70
2023-02-13T13:16:09.692Z,5.67
2023-02-13T13:19:04.337Z,8.73
2023-02-13T13:22:10.378Z,4.33
2023-02-13T13:24:36.981Z,3.83
2023-02-13T13:27:03.901Z,4.73
2023-02-13T13:29:43.266Z,5.07
2023-02-13T13:32:14.797Z,4.50
2023-02-13T13:34:41.391Z,4.37
2023-02-13T13:37:14.405Z,5.47
2023-02-13T13:39:47.747Z,5.60
2023-02-13T13:42:23.471Z,10.43
2023-02-13T13:45:09.025Z,5.40
2023-02-13T13:47:41.224Z,5.37
2023-02-13T13:50:19.232Z,4.77
2023-02-13T13:53:04.703Z,4.50
2023-02-13T13:55:49.971Z,4.43
2023-02-13T13:58:32.810Z,5.70
2023-02-13T14:01:15.348Z,3.57
2023-02-13T14:03:49.129Z,6.60
2023-02-13T14:06:36.008Z,2.80
2023-02-13T14:09:06.183Z,4.97
2023-02-13T14:11:35.051Z,6.43
2023-02-13T14:14:02.753Z,3.70
2023-02-13T14:16:58.656Z,4.90
2023-02-13T14:19:27.251Z,3.93
2023-02-13T14:21:54.810Z,5.27
2023-02-13T14:24:22.870Z,3.67
2023-02-13T14:26:57.905Z,5.57
2023-02-13T14:29:33.038Z,5.47
2023-02-13T14:32:01.848Z,4.50
2023-02-13T14:34:31.214Z,5.83
2023-02-13T14:37:21.149Z,4.93
2023-02-13T14:40:06.433Z,5.83
2023-02-13T14:42:35.273Z,3.80
2023-02-13T14:45:03.306Z,6.50
2023-02-13T14:47:36.158Z,7.20
2023-02-13T14:50:04.793Z,7.87
2023-02-13T14:52:43.552Z,9.17
2023-02-13T14:55:28.933Z,7.33
2023-02-13T14:58:11.193Z,6.57
2023-02-13T15:00:40.854Z,8.53
2023-02-13T15:03:16.703Z,9.83
2023-02-13T15:05:49.784Z,6.83
2023-02-13T15:08:19.156Z,8.00
2023-02-13T15:10:47.470Z,5.63
2023-02-13T15:13:24.341Z,9.03
2023-02-13T15:15:59.326Z,5.20
2023-02-13T15:18:27.220Z,4.43
2023-02-13T15:20:55.804Z,6.70
2023-02-13T15:23:23.928Z,6.77
2023-02-13T15:25:56.766Z,5.50
2023-02-13T15:28:24.517Z,5.83
2023-02-13T15:30:55.622Z,5.63
2023-02-13T15:33:23.331Z,7.23
2023-02-13T15:35:56.876Z,8.80
2023-02-13T15:38:23.404Z,7.90
2023-02-13T15:40:50.866Z,5.57
2023-02-13T15:43:26.243Z,4.20
2023-02-13T15:46:00.569Z,4.87
2023-02-13T15:48:28.914Z,4.53
2023-02-13T15:50:55.870Z,5.43
2023-02-13T15:53:22.855Z,9.10
2023-02-13T15:55:56.334Z,7.60
2023-02-13T15:58:26.056Z,12.57
2023-02-13T16:00:53.001Z,8.80
2023-02-13T16:03:19.972Z,10.70
2023-02-13T16:05:55.906Z,13.50
2023-02-13T16:08:33.537Z,10.67
2023-02-13T16:11:19.101Z,7.73
2023-02-13T16:14:11.764Z,13.37
2023-02-13T16:16:46.348Z,11.20
2023-02-13T16:19:39.027Z,10.97
2023-02-13T16:22:17.441Z,9.87
2023-02-13T16:24:52.344Z,7.63
2023-02-13T16:27:21.181Z,9.20
2023-02-13T16:29:51.895Z,8.03
2023-02-13T16:32:26.861Z,7.57
2023-02-13T16:34:54.240Z,11.87
2023-02-13T16:37:33.396Z,9.70
2023-02-13T16:40:40.918Z,10.33
2023-02-13T16:43:26.140Z,13.20
2023-02-13T16:45:52.858Z,9.00
2023-02-13T16:48:19.549Z,9.63
2023-02-13T16:50:58.377Z,10.93
2023-02-13T16:53:25.112Z,10.93
2023-02-13T16:56:01.596Z,12.87
2023-02-13T16:58:28.562Z,12.17
2023-02-13T17:00:55.668Z,23.87
2023-02-13T17:03:26.266Z,12.10
2023-02-13T17:05:52.908Z,11.00
2023-02-13T17:08:19.807Z,11.43
2023-02-13T17:11:05.991Z,11.43
2023-02-13T17:13:33.065Z,14.90
2023-02-13T17:16:00.321Z,22.13
2023-02-13T17:18:27.580Z,17.77
2023-02-13T17:20:54.507Z,24.40
2023-02-13T17:23:22.872Z,18.70
2023-02-13T17:25:51.442Z,10.37
2023-02-13T17:28:21.111Z,11.40
2023-02-13T17:30:48.804Z,10.00
2023-02-13T17:33:19.578Z,10.70
2023-02-13T17:35:49.407Z,9.57
2023-02-13T17:38:16.240Z,10.03
2023-02-13T17:40:44.633Z,9.87
2023-02-13T17:43:12.359Z,12.47
2023-02-13T17:45:42.173Z,13.37
2023-02-13T17:48:08.956Z,16.13
2023-02-13T17:50:35.975Z,13.70
2023-02-13T17:53:04.787Z,13.70
2023-02-13T17:55:32.324Z,20.27
2023-02-13T17:57:59.654Z,10.47
2023-02-13T18:00:28.359Z,10.27
2023-02-13T18:02:55.891Z,8.13
2023-02-13T18:05:24.219Z,10.80
2023-02-13T18:07:52.262Z,11.23
2023-02-13T18:10:24.206Z,11.03
2023-02-13T18:12:54.912Z,12.13
2023-02-13T18:23:04.431Z,14.00
2023-02-13T18:25:34.323Z,15.87
2023-02-13T18:28:02.221Z,11.77
2023-02-13T18:30:29.035Z,18.10
2023-02-13T18:32:56.752Z,13.10
2023-02-13T18:35:23.602Z,16.23
2023-02-13T18:37:50.979Z,12.73
2023-02-13T18:40:20.684Z,12.50
2023-02-13T18:42:48.428Z,10.60
2023-02-13T18:45:16.608Z,12.30
2023-02-13T18:47:43.294Z,9.27
2023-02-13T18:50:10.392Z,20.53
2023-02-13T18:52:37.236Z,11.43
2023-02-13T18:55:09.513Z,10.80
2023-02-13T18:57:43.457Z,12.70
2023-02-13T19:00:10.360Z,15.33
2023-02-13T19:02:36.833Z,12.97
2023-02-13T19:05:03.669Z,12.47
2023-02-13T19:07:30.196Z,14.17
2023-02-13T19:09:56.736Z,9.87
2023-02-13T19:12:23.599Z,12.33
2023-02-13T19:14:50.300Z,10.53
2023-02-13T19:17:17.014Z,14.13
2023-02-13T19:19:45.008Z,11.80
2023-02-13T19:22:11.840Z,12.00
2023-02-13T19:24:38.474Z,15.13
2023-02-13T19:27:05.233Z,11.93
2023-02-13T19:29:32.080Z,10.33
2023-02-13T19:31:58.828Z,7.93
2023-02-13T19:34:25.559Z,13.87
2023-02-13T19:36:52.360Z,10.40
2023-02-13T19:39:20.235Z,8.93
2023-02-13T19:41:46.993Z,9.97
2023-02-13T19:44:14.060Z,11.30
2023-02-13T19:46:40.909Z,10.77
2023-02-13T19:49:07.703Z,12.57
2023-02-13T19:51:35.220Z,10.87
2023-02-13T19:54:03.047Z,11.40
2023-02-13T19:56:30.816Z,11.00
2023-02-13T19:58:57.779Z,11.57
2023-02-13T20:01:25.499Z,11.23
2023-02-13T20:07:20.261Z,11.03
2023-02-13T20:09:49.521Z,9.70
2023-02-13T20:12:16.182Z,8.97
2023-02-13T20:14:42.923Z,11.93
2023-02-13T20:17:09.682Z,12.30
2023-02-13T20:19:36.401Z,9.57
2023-02-13T20:22:02.923Z,7.73
2023-02-13T20:24:29.768Z,8.60
2023-02-13T20:26:58.872Z,6.47
2023-02-13T20:29:31.535Z,6.67
2023-02-13T20:32:01.794Z,8.47
2023-02-13T20:34:44.155Z,7.63
2023-02-13T20:37:25.017Z,9.43
2023-02-13T20:40:12.122Z,7.43
2023-02-13T20:42:41.505Z,7.50
2023-02-13T20:49:00.262Z,8.03
2023-02-13T20:51:45.099Z,17.53
2023-02-13T20:54:19.270Z,7.53
2023-02-13T20:56:50.653Z,16.40
2023-02-13T20:59:46.183Z,12.07
2023-02-13T21:10:23.792Z,8.57
2023-02-13T21:13:15.402Z,12.27
2023-02-13T21:17:49.483Z,15.70
2023-02-13T21:19:22.038Z,19.70
2023-02-13T21:21:48.853Z,8.90
2023-02-13T21:24:51.842Z,8.07
2023-02-13T21:30:40.228Z,11.77
2023-02-13T21:33:06.864Z,8.90
2023-02-13T21:49:40.982Z,9.63
2023-02-13T21:52:07.593Z,8.87
2023-02-13T21:54:34.360Z,7.80
2023-02-13T21:57:00.871Z,7.93
2023-02-13T21:59:27.683Z,9.70
2023-02-13T22:01:54.721Z,10.60
2023-02-13T22:04:21.413Z,10.73
2023-02-13T22:06:48.900Z,9.40
2023-02-13T22:09:16.093Z,7.97
2023-02-13T22:11:42.875Z,7.60
2023-02-13T22:14:14.488Z,7.40
2023-02-13T22:16:42.634Z,7.60
2023-02-13T22:19:11.903Z,6.43
2023-02-13T22:21:38.481Z,13.93
2023-02-13T22:24:05.215Z,8.43
2023-02-13T22:26:36.106Z,9.80
2023-02-13T22:29:04.965Z,7.00
2023-02-13T22:31:31.641Z,11.40
2023-02-13T22:34:06.151Z,16.23
2023-02-13T22:36:39.102Z,16.70
2023-02-13T22:39:06.306Z,15.23
2023-02-13T22:41:32.774Z,15.53
2023-02-13T22:43:59.272Z,10.77
2023-02-13T22:46:27.260Z,11.77
2023-02-13T22:48:54.379Z,11.47
2023-02-13T22:51:22.946Z,8.77
2023-02-13T22:53:49.699Z,8.20
2023-02-13T22:56:16.293Z,10.33
2023-02-13T22:58:42.825Z,9.93
2023-02-13T23:01:13.823Z,6.17
2023-02-13T23:03:40.831Z,5.90
2023-02-13T23:06:08.923Z,6.57
2023-02-13T23:08:35.877Z,10.43
2023-02-13T23:11:40.093Z,6.40
2023-02-13T23:14:06.819Z,7.70
2023-02-13T23:16:53.409Z,7.17
2023-02-13T23:19:20.652Z,8.63
2023-02-13T23:21:47.181Z,5.73
2023-02-13T23:24:13.722Z,6.23
2023-02-13T23:26:40.216Z,8.23
2023-02-13T23:29:06.682Z,11.33
2023-02-13T23:31:33.473Z,9.33
2023-02-13T23:34:07.151Z,11.13
2023-02-13T23:36:33.779Z,10.07
2023-02-13T23:39:00.311Z,8.10
2023-02-13T23:41:26.763Z,8.00
2023-02-13T23:43:53.318Z,8.97
2023-02-13T23:46:19.822Z,7.27
2023-02-13T23:48:46.691Z,6.43
2023-02-13T23:51:13.311Z,8.27
2023-02-13T23:53:39.866Z,9.60
2023-02-13T23:56:06.672Z,7.63
2023-02-13T23:58:33.515Z,18.30
